Time;durP1;ratioP1;P1;durP2;ratioP2;P2;SDS_P1;SDS_P2;PMS_P1;PMS_P2;Temp;Humidity;BMP_temperature;BMP_pressure;BME280_temperature;BME280_humidity;BME280_pressure;Samples;Min_cycle;Max_cycle;Signal;HPM_P1;HPM_P2
2021/06/03 00:00:48;;;;;;;16.48;6.60;;;;;;;13.46;59.93;100402.69;4442636;32;20116;-90
2021/06/03 00:03:13;;;;;;;14.45;6.47;;;;;;;13.38;59.92;100408.19;4468700;32;20127;-90
2021/06/03 00:05:43;;;;;;;10.05;5.18;;;;;;;13.34;59.92;100413.56;4477685;32;20140;-91
2021/06/03 00:08:09;;;;;;;12.23;5.62;;;;;;;13.39;59.92;100411.66;4471590;32;20107;-90
2021/06/03 00:10:38;;;;;;;14.63;6.20;;;;;;;13.32;59.91;100410.16;4465176;32;20117;-90
2021/06/03 00:13:04;;;;;;;15.65;6.62;;;;;;;13.28;59.92;100416.41;4461646;32;20115;-90
2021/06/03 00:15:29;;;;;;;16.33;6.32;;;;;;;13.32;59.91;100416.25;4442858;32;20147;-90
2021/06/03 00:17:55;;;;;;;15.20;5.90;;;;;;;13.40;59.92;100415.97;4468466;32;20437;-90
2021/06/03 00:20:22;;;;;;;13.68;5.68;;;;;;;13.28;59.92;100416.41;4455434;32;20096;-90
2021/06/03 00:22:49;;;;;;;12.77;5.57;;;;;;;13.55;59.92;100409.41;4442418;32;20881;-89
2021/06/03 00:25:15;;;;;;;14.68;6.28;;;;;;;13.23;59.91;100413.06;4467799;32;20097;-90
2021/06/03 00:27:40;;;;;;;16.52;5.00;;;;;;;13.18;59.90;100421.03;4454740;32;20437;-89
2021/06/03 00:30:07;;;;;;;11.12;5.68;;;;;;;13.11;59.90;100428.19;4467241;32;25604;-90
2021/06/03 00:32:32;;;;;;;11.35;6.10;;;;;;;13.29;59.91;100418.97;4441882;32;20096;-89
2021/06/03 00:34:57;;;;;;;13.45;5.93;;;;;;;13.21;59.91;100420.94;4467516;32;21069;-90
2021/06/03 00:37:23;;;;;;;9.40;5.55;;;;;;;13.19;59.92;100423.59;4468938;32;20148;-91
2021/06/03 00:39:48;;;;;;;9.32;5.05;;;;;;;13.17;59.91;100422.81;4456024;32;20108;-92
2021/06/03 00:42:14;;;;;;;8.20;5.20;;;;;;;13.02;59.89;100428.50;4469084;32;20129;-93
2021/06/03 00:44:39;;;;;;;9.65;5.25;;;;;;;13.18;59.90;100431.50;4469052;32;20125;-93
2021/06/03 00:47:05;;;;;;;7.57;5.03;;;;;;;13.25;59.91;100425.19;4456108;32;20137;-92
2021/06/03 00:49:30;;;;;;;7.97;5.25;;;;;;;13.29;59.91;100426.81;4469229;32;20093;-92
2021/06/03 00:51:55;;;;;;;12.30;5.28;;;;;;;13.33;59.92;100431.03;4456070;32;20132;-93
2021/06/03 00:54:21;;;;;;;8.10;5.12;;;;;;;13.20;59.92;100427.06;4455614;32;20134;-92
2021/06/03 00:56:47;;;;;;;11.02;5.20;;;;;;;13.13;59.91;100431.62;4443554;32;20676;-92
2021/06/03 00:59:12;;;;;;;8.13;5.15;;;;;;;13.18;59.90;100427.13;4443718;32;20112;-92
2021/06/03 01:01:38;;;;;;;12.82;6.60;;;;;;;13.08;59.90;100425.69;4456416;32;20120;-91
2021/06/03 01:04:04;;;;;;;9.75;4.70;;;;;;;13.08;59.90;100438.75;4456186;32;20365;-93
2021/06/03 01:06:30;;;;;;;8.77;5.22;;;;;;;13.15;59.90;100440.28;4443696;32;20104;-91
2021/06/03 01:09:05;;;;;;;7.45;4.97;;;;;;;13.32;59.91;100429.31;4469432;32;20152;-93
2021/06/03 01:11:48;;;;;;;10.48;5.68;;;;;;;13.34;59.92;100437.09;4443829;32;20493;-91
2021/06/03 01:14:21;;;;;;;7.28;4.82;;;;;;;13.18;59.92;100440.19;4444338;32;20123;-92
2021/06/03 01:16:48;;;;;;;5.95;4.43;;;;;;;13.20;59.91;100442.75;4442457;32;20174;-90
2021/06/03 01:19:20;;;;;;;5.97;4.28;;;;;;;13.36;59.92;100438.75;4441835;32;20113;-91
2021/06/03 01:21:46;;;;;;;9.75;5.30;;;;;;;13.29;59.91;100437.25;4442555;32;20453;-90
2021/06/03 01:24:28;;;;;;;8.15;4.87;;;;;;;13.18;59.90;100439.34;4454590;32;20069;-90
2021/06/03 01:26:58;;;;;;;9.43;4.72;;;;;;;13.15;59.91;100444.63;4467723;32;20606;-91
2021/06/03 01:29:24;;;;;;;10.30;4.90;;;;;;;13.11;59.90;100443.03;4442427;32;20113;-90
2021/06/03 01:31:50;;;;;;;5.75;4.07;;;;;;;13.27;59.92;100443.44;4454615;32;20084;-90
2021/06/03 01:34:15;;;;;;;10.07;5.03;;;;;;;13.20;59.91;100446.22;4455379;32;20089;-92
2021/06/03 01:36:41;;;;;;;11.10;5.87;;;;;;;13.25;59.91;100453.97;4455219;32;20446;-91
2021/06/03 01:39:07;;;;;;;10.90;5.05;;;;;;;13.41;59.91;100443.84;4467706;32;20084;-91
2021/06/03 01:41:33;;;;;;;9.63;5.22;;;;;;;13.12;59.91;100455.19;4467877;32;20088;-91
2021/06/03 01:43:58;;;;;;;9.38;4.72;;;;;;;13.04;59.89;100457.19;4467946;32;20115;-91
2021/06/03 01:46:23;;;;;;;7.97;4.32;;;;;;;13.04;59.89;100446.75;4467318;32;20239;-90
2021/06/03 01:48:49;;;;;;;9.68;5.90;;;;;;;12.85;59.89;100449.91;4456072;32;23917;-92
2021/06/03 01:51:15;;;;;;;11.00;5.15;;;;;;;12.92;59.89;100447.97;4470387;32;20225;-91
2021/06/03 01:53:40;;;;;;;14.00;5.78;;;;;;;13.03;59.89;100452.88;4456886;32;20122;-91
2021/06/03 01:56:11;;;;;;;13.98;5.85;;;;;;;13.12;59.91;100444.75;4455719;32;20101;-90
2021/06/03 01:58:36;;;;;;;9.77;5.45;;;;;;;12.86;59.89;100442.94;4454730;32;20164;-90
2021/06/03 02:01:01;;;;;;;10.35;5.60;;;;;;;12.88;59.89;100456.81;4454320;32;20130;-90
2021/06/03 02:03:27;;;;;;;10.35;5.57;;;;;;;12.71;59.88;100457.28;4468661;32;20113;-90
2021/06/03 02:05:53;;;;;;;12.88;5.57;;;;;;;12.80;59.88;100451.81;4467214;32;20188;-91
2021/06/03 02:08:19;;;;;;;12.85;5.97;;;;;;;12.84;59.89;100458.66;4441915;32;20530;-91
2021/06/03 02:10:44;;;;;;;12.77;6.40;;;;;;;12.75;59.89;100456.28;4454287;32;20148;-90
2021/06/03 02:13:28;;;;;;;16.77;6.55;;;;;;;12.69;59.88;100460.84;4454576;32;20100;-92
2021/06/03 02:15:54;;;;;;;10.85;5.68;;;;;;;12.76;59.88;100460.63;4456106;32;20156;-94
2021/06/03 02:18:19;;;;;;;10.90;5.80;;;;;;;12.82;59.89;100457.84;4468240;32;20714;-92
2021/06/03 02:20:46;;;;;;;10.13;6.10;;;;;;;12.74;59.89;100459.81;4455457;32;20497;-93
2021/06/03 02:23:12;;;;;;;11.02;5.72;;;;;;;12.66;59.88;100466.19;4443788;32;20092;-91
2021/06/03 02:25:37;;;;;;;12.43;6.53;;;;;;;12.74;59.89;100466.78;4456195;32;20219;-93
2021/06/03 02:28:03;;;;;;;14.15;6.53;;;;;;;12.74;59.89;100462.44;4467385;32;20506;-91
2021/06/03 02:30:29;;;;;;;17.10;6.28;;;;;;;12.83;59.89;100461.31;4454175;32;20096;-91
2021/06/03 02:32:55;;;;;;;15.15;6.40;;;;;;;12.93;59.89;100464.50;4454480;32;20108;-91
2021/06/03 02:35:20;;;;;;;15.05;6.18;;;;;;;12.82;59.89;100460.47;4467329;32;20179;-90
2021/06/03 02:37:46;;;;;;;18.37;6.25;;;;;;;12.83;59.89;100461.31;4457082;32;20113;-91
2021/06/03 02:40:16;;;;;;;14.25;6.10;;;;;;;12.91;59.89;100461.94;4471159;32;20080;-91
2021/06/03 02:42:42;;;;;;;13.52;6.22;;;;;;;13.01;59.90;100465.09;4473327;32;20065;-94
2021/06/03 02:45:13;;;;;;;13.38;6.30;;;;;;;13.00;59.90;100461.63;4456932;32;20077;-93
2021/06/03 02:47:39;;;;;;;12.57;4.85;;;;;;;12.90;59.90;100466.31;4450972;32;20788;-94
2021/06/03 02:50:07;;;;;;;13.95;6.05;;;;;;;12.92;59.89;100468.88;4446068;32;20115;-93
2021/06/03 02:52:33;;;;;;;12.35;5.57;;;;;;;13.03;59.89;100476.41;4458448;32;20093;-94
2021/06/03 02:54:58;;;;;;;13.60;5.22;;;;;;;13.29;59.91;100473.00;4471010;32;20101;-94
2021/06/03 02:57:23;;;;;;;11.60;5.35;;;;;;;13.20;59.91;100479.38;4457062;32;29341;-93
2021/06/03 02:59:49;;;;;;;10.32;5.30;;;;;;;13.03;59.89;100474.63;4457604;32;21453;-91
2021/06/03 03:02:14;;;;;;;9.98;4.93;;;;;;;13.11;59.90;100475.25;4457062;32;28637;-91
2021/06/03 03:04:40;;;;;;;9.95;4.90;;;;;;;13.22;59.91;100469.72;4457550;32;20156;-92
2021/06/03 03:07:05;;;;;;;10.90;4.95;;;;;;;13.31;59.91;100479.03;4457526;32;20149;-91
2021/06/03 03:09:30;;;;;;;10.00;4.90;;;;;;;13.37;59.92;100478.84;4455345;32;21834;-90
2021/06/03 03:11:56;;;;;;;10.32;5.43;;;;;;;13.28;59.92;100487.00;4469200;32;20124;-91
2021/06/03 03:14:22;;;;;;;9.70;4.53;;;;;;;13.29;59.91;100489.56;4469182;32;20144;-91
2021/06/03 03:16:47;;;;;;;9.70;4.82;;;;;;;13.35;59.92;100486.72;4456152;32;20184;-91
2021/06/03 03:19:13;;;;;;;9.60;5.30;;;;;;;13.31;59.91;100486.88;4468735;32;20161;-90
2021/06/03 03:21:38;;;;;;;8.73;5.28;;;;;;;13.38;59.92;100489.25;4468645;32;20128;-90
2021/06/03 03:24:04;;;;;;;10.82;5.00;;;;;;;13.38;59.92;100488.41;4456445;32;20213;-91
2021/06/03 03:26:29;;;;;;;15.15;6.18;;;;;;;13.46;59.92;100491.59;4456768;32;20104;-91
2021/06/03 03:28:55;;;;;;;7.82;4.35;;;;;;;13.42;59.92;100497.84;4456182;32;26776;-92
2021/06/03 03:31:20;;;;;;;10.18;4.53;;;;;;;13.56;59.93;100495.66;4468667;32;20825;-90
2021/06/03 03:33:47;;;;;;;11.12;4.97;;;;;;;13.72;59.94;100494.25;4454693;32;26379;-89
2021/06/03 03:36:12;;;;;;;9.57;4.93;;;;;;;13.83;59.95;100494.75;4455467;32;20104;-90
2021/06/03 03:38:37;;;;;;;10.55;4.75;;;;;;;13.63;59.93;100498.91;4468485;32;20147;-90
2021/06/03 03:41:03;;;;;;;16.70;5.10;;;;;;;13.98;59.95;100498.63;4455052;32;20144;-90
2021/06/03 03:43:28;;;;;;;8.50;4.68;;;;;;;13.90;59.95;100500.63;4468416;32;20108;-91
2021/06/03 03:45:54;;;;;;;15.75;5.05;;;;;;;13.77;59.94;100502.81;4468199;32;20104;-91
2021/06/03 03:48:19;;;;;;;9.55;4.40;;;;;;;13.89;59.95;100495.44;4467629;32;20104;-90
2021/06/03 03:50:45;;;;;;;6.53;4.07;;;;;;;13.88;59.95;100498.97;4455688;32;20392;-91
2021/06/03 03:53:10;;;;;;;10.43;4.90;;;;;;;13.99;59.95;100491.63;4468697;32;20181;-90
2021/06/03 03:55:35;;;;;;;7.10;3.80;;;;;;;14.01;59.95;100498.50;4455503;32;20161;-91
2021/06/03 03:58:02;;;;;;;10.13;4.60;;;;;;;13.99;59.95;100504.72;4468409;32;20149;-91
2021/06/03 04:00:29;;;;;;;9.60;3.83;;;;;;;14.07;59.95;100505.28;4468495;32;20108;-91
2021/06/03 04:02:55;;;;;;;9.88;4.45;;;;;;;14.24;59.96;100502.97;4443051;32;20504;-90
2021/06/03 04:05:20;;;;;;;9.27;4.25;;;;;;;14.43;59.97;100503.16;4467922;32;20124;-91
2021/06/03 04:07:46;;;;;;;9.25;3.85;;;;;;;14.65;59.99;100506.72;4467759;32;20156;-92
2021/06/03 04:10:13;;;;;;;8.63;4.00;;;;;;;14.77;59.99;100497.56;4467638;32;20738;-92
2021/06/03 04:12:39;;;;;;;6.60;3.37;;;;;;;14.91;60.00;100497.06;4453783;32;20516;-90
2021/06/03 04:15:05;;;;;;;9.50;3.83;;;;;;;15.14;60.01;100507.53;4466382;32;20148;-91
2021/06/03 04:17:30;;;;;;;6.95;3.12;;;;;;;15.35;60.02;100501.41;4453698;32;20153;-90
2021/06/03 04:19:56;;;;;;;5.43;3.22;;;;;;;15.55;60.04;100498.00;4467506;32;20112;-90
2021/06/03 04:22:21;;;;;;;7.22;3.12;;;;;;;15.69;60.04;100494.00;4455125;32;20156;-91
2021/06/03 04:24:47;;;;;;;7.43;3.22;;;;;;;16.07;60.06;100493.22;4468340;32;20173;-90
2021/06/03 04:27:13;;;;;;;4.60;2.87;;;;;;;16.08;60.06;100501.97;4442207;32;20101;-91
2021/06/03 04:29:38;;;;;;;5.15;2.90;;;;;;;16.27;60.08;100490.59;4467833;32;20160;-90
2021/06/03 04:32:04;;;;;;;5.55;2.90;;;;;;;16.34;60.08;100495.63;4454743;32;20137;-91
2021/06/03 04:34:29;;;;;;;7.00;3.37;;;;;;;16.45;60.08;100501.22;4455189;32;20121;-91
2021/06/03 04:36:55;;;;;;;5.40;3.12;;;;;;;16.61;60.08;100507.53;4468558;32;22408;-91
2021/06/03 04:39:20;;;;;;;6.78;3.65;;;;;;;16.77;60.09;100503.28;4454521;32;20163;-90
2021/06/03 04:41:45;;;;;;;7.40;2.97;;;;;;;16.95;60.11;100503.38;4454220;32;24487;-90
2021/06/03 04:44:11;;;;;;;6.05;2.65;;;;;;;17.13;60.11;100497.28;4454607;32;20148;-91
2021/06/03 04:46:36;;;;;;;6.22;2.85;;;;;;;17.08;60.12;100504.53;4467781;32;20088;-90
2021/06/03 04:49:02;;;;;;;6.03;3.15;;;;;;;17.21;60.12;100495.13;4467577;32;20433;-90
2021/06/03 04:51:27;;;;;;;5.55;2.85;;;;;;;17.41;60.13;100494.16;4467962;32;20182;-91
2021/06/03 04:53:52;;;;;;;5.53;2.78;;;;;;;17.47;60.14;100493.88;4467657;32;20140;-91
2021/06/03 04:56:18;;;;;;;5.82;2.95;;;;;;;17.55;60.14;100491.72;4455302;32;27703;-91
2021/06/03 04:58:43;;;;;;;5.80;3.35;;;;;;;17.74;60.15;100491.69;4468182;32;25731;-91
2021/06/03 05:01:08;;;;;;;4.60;2.62;;;;;;;17.99;60.16;100492.19;4454966;32;20108;-91
2021/06/03 05:03:34;;;;;;;6.20;2.83;;;;;;;18.10;60.17;100495.13;4454725;32;23480;-91
2021/06/03 05:06:00;;;;;;;5.80;2.75;;;;;;;18.29;60.18;100497.66;4467852;32;20139;-91
2021/06/03 05:08:25;;;;;;;5.87;2.35;;;;;;;18.31;60.19;100497.59;4455092;32;20110;-91
2021/06/03 05:10:50;;;;;;;5.43;2.70;;;;;;;18.40;60.18;100497.94;4468531;32;23438;-91
2021/06/03 05:13:16;;;;;;;5.50;3.10;;;;;;;18.29;60.17;100496.81;4482253;32;20087;-90
2021/06/03 05:15:41;;;;;;;5.65;2.62;;;;;;;18.41;60.18;100501.44;4484438;32;20093;-90
2021/06/03 05:18:07;;;;;;;5.43;2.42;;;;;;;18.60;60.19;100501.31;4477292;32;24691;-91
2021/06/03 05:20:32;;;;;;;4.07;2.47;;;;;;;18.66;60.20;100493.94;4472558;32;22078;-92
2021/06/03 05:22:58;;;;;;;7.05;2.47;;;;;;;18.67;60.20;100497.44;4455266;32;20130;-90
2021/06/03 05:25:25;;;;;;;4.32;2.45;;;;;;;18.90;60.21;100489.13;4455012;32;20093;-91
2021/06/03 05:27:51;;;;;;;4.68;2.62;;;;;;;18.82;60.21;100493.12;4441947;32;20107;-90
2021/06/03 05:30:17;;;;;;;6.28;2.85;;;;;;;18.92;60.21;100489.06;4454606;32;20104;-90
2021/06/03 05:32:42;;;;;;;3.95;2.30;;;;;;;19.00;60.21;100486.88;4438453;32;98850;-91
2021/06/03 05:35:10;;;;;;;7.82;2.70;;;;;;;19.07;60.22;100490.00;4454258;32;20088;-90
2021/06/03 05:37:35;;;;;;;5.65;2.00;;;;;;;19.50;60.24;100491.94;4454548;32;20085;-91
2021/06/03 05:40:00;;;;;;;9.65;2.55;;;;;;;19.69;60.25;100498.84;4468060;32;20108;-90
2021/06/03 05:42:26;;;;;;;6.75;2.17;;;;;;;19.61;60.24;100491.34;4454313;32;20108;-91
2021/06/03 05:44:51;;;;;;;4.18;2.72;;;;;;;19.59;60.25;100495.88;4454483;32;20159;-90
2021/06/03 05:47:17;;;;;;;6.57;2.33;;;;;;;19.83;60.25;100493.59;4467197;32;20478;-91
2021/06/03 05:49:42;;;;;;;2.95;1.87;;;;;;;19.78;60.25;100498.31;4453945;32;20188;-90
2021/06/03 05:52:08;;;;;;;5.25;2.33;;;;;;;20.06;60.27;100495.75;4453988;32;20173;-90
2021/06/03 05:54:33;;;;;;;7.25;2.00;;;;;;;19.92;60.26;100499.22;4454096;32;20100;-89
2021/06/03 05:56:59;;;;;;;4.55;2.40;;;;;;;20.10;60.28;100496.41;4467032;32;20080;-89
2021/06/03 05:59:25;;;;;;;3.62;1.77;;;;;;;20.27;60.28;100504.19;4454147;32;20104;-89
2021/06/03 06:01:51;;;;;;;3.78;2.00;;;;;;;20.28;60.28;100505.03;4466923;32;20125;-89
2021/06/03 06:06:42;;;;;;;5.70;2.25;;;;;;;20.46;60.29;100507.44;4468147;32;20364;-89
2021/06/03 06:09:07;;;;;;;3.25;2.10;;;;;;;20.59;60.31;100507.56;4467373;32;20172;-91
2021/06/03 06:11:34;;;;;;;3.40;2.05;;;;;;;20.81;60.31;100509.72;4451667;32;20547;-91
2021/06/03 06:14:00;;;;;;;3.28;1.83;;;;;;;20.75;60.31;100512.75;4453113;32;20148;-90
2021/06/03 06:16:26;;;;;;;4.87;2.00;;;;;;;21.11;60.33;100513.09;4453908;32;20167;-92
2021/06/03 06:18:51;;;;;;;5.07;2.22;;;;;;;21.23;60.33;100515.88;4453348;32;20120;-92
2021/06/03 06:21:18;;;;;;;6.57;2.40;;;;;;;21.18;60.33;100513.53;4453622;32;20126;-91
2021/06/03 06:23:44;;;;;;;8.38;2.50;;;;;;;21.20;60.34;100521.38;4441322;32;20088;-92
2021/06/03 06:26:09;;;;;;;7.43;2.58;;;;;;;21.37;60.34;100519.41;4453112;32;20693;-91
2021/06/03 06:28:35;;;;;;;6.62;2.30;;;;;;;21.44;60.35;100522.50;4453137;32;20139;-88
2021/06/03 06:31:01;;;;;;;4.22;2.40;;;;;;;21.81;60.37;100514.78;4466017;32;20104;-89
2021/06/03 06:33:26;;;;;;;8.48;2.70;;;;;;;21.75;60.36;100519.53;4465729;32;20209;-89
2021/06/03 06:35:51;;;;;;;5.72;2.17;;;;;;;21.89;60.37;100512.47;4465145;32;20124;-89
2021/06/03 06:38:17;;;;;;;6.12;2.25;;;;;;;22.19;60.39;100517.53;4466087;32;20532;-90
2021/06/03 06:40:43;;;;;;;5.12;1.83;;;;;;;22.46;60.40;100514.78;4453040;32;20177;-91
2021/06/03 06:43:09;;;;;;;3.25;2.03;;;;;;;22.74;60.42;100508.44;4453269;32;20108;-90
2021/06/03 06:45:37;;;;;;;7.72;2.40;;;;;;;23.02;60.43;100512.66;4465270;32;20097;-90
2021/06/03 06:48:07;;;;;;;4.28;2.10;;;;;;;23.35;60.45;100510.22;4453006;32;20139;-90
2021/06/03 06:50:36;;;;;;;5.22;2.20;;;;;;;23.66;60.46;100518.59;4453359;32;20100;-90
2021/06/03 06:53:01;;;;;;;5.30;2.12;;;;;;;23.98;60.48;100516.22;4452941;32;20496;-91
2021/06/03 06:55:27;;;;;;;6.47;2.10;;;;;;;24.25;60.49;100511.44;4466135;32;20112;-89
2021/06/03 06:57:53;;;;;;;5.82;3.03;;;;;;;24.32;60.50;100517.16;4467237;32;20155;-90
2021/06/03 07:00:19;;;;;;;6.35;1.70;;;;;;;24.41;60.50;100517.31;4468253;32;20101;-90
2021/06/03 07:02:45;;;;;;;5.00;2.20;;;;;;;24.24;60.49;100515.06;4454000;32;20092;-89
2021/06/03 07:05:11;;;;;;;4.40;2.17;;;;;;;24.06;60.49;100517.31;4466309;32;20156;-90
2021/06/03 07:07:36;;;;;;;4.55;2.20;;;;;;;24.09;60.48;100521.53;4452850;32;20108;-90
2021/06/03 07:10:03;;;;;;;7.12;2.35;;;;;;;24.14;60.49;100516.75;4465591;32;20148;-90
2021/06/03 07:12:29;;;;;;;7.65;2.12;;;;;;;24.29;60.51;100522.72;4439915;32;20449;-91
2021/06/03 07:14:54;;;;;;;5.80;2.30;;;;;;;24.39;60.50;100523.72;4452300;32;23387;-91
2021/06/03 07:17:20;;;;;;;3.75;2.25;;;;;;;24.73;60.52;100516.59;4465472;32;20168;-89
2021/06/03 07:19:45;;;;;;;6.90;1.95;;;;;;;24.82;60.52;100523.84;4452387;32;20125;-90
2021/06/03 07:22:11;;;;;;;8.77;2.80;;;;;;;24.89;60.53;100524.25;4452971;32;20124;-90
2021/06/03 07:24:37;;;;;;;6.43;2.25;;;;;;;25.14;60.55;100529.34;4455082;32;20134;-89
2021/06/03 07:27:05;;;;;;;3.50;2.40;;;;;;;24.89;60.53;100534.91;4454679;32;20105;-89
2021/06/03 07:29:31;;;;;;;4.10;2.08;;;;;;;24.73;60.52;100525.44;4454847;32;20139;-92
2021/06/03 07:31:56;;;;;;;5.53;2.25;;;;;;;24.83;60.52;100530.03;4454614;32;20104;-89
2021/06/03 07:34:22;;;;;;;6.43;2.25;;;;;;;24.87;60.53;100534.16;4468843;32;20138;-89
2021/06/03 07:36:47;;;;;;;6.07;1.95;;;;;;;24.74;60.52;100534.28;4455306;32;20120;-90
2021/06/03 07:39:12;;;;;;;3.40;2.03;;;;;;;24.80;60.53;100534.63;4454620;32;20510;-90
2021/06/03 07:41:38;;;;;;;4.53;2.25;;;;;;;24.87;60.53;100539.50;4467979;32;20092;-90
2021/06/03 07:44:04;;;;;;;6.30;2.00;;;;;;;25.05;60.54;100535.37;4455562;32;20480;-89
2021/06/03 07:46:29;;;;;;;3.95;2.20;;;;;;;25.06;60.53;100531.75;4455217;32;20130;-90
2021/06/03 07:48:55;;;;;;;4.80;2.00;;;;;;;25.27;60.55;100532.69;4457195;32;20116;-90
2021/06/03 07:51:20;;;;;;;8.50;2.05;;;;;;;25.15;60.55;100528.37;4470776;32;27997;-89
2021/06/03 07:53:45;;;;;;;4.47;2.08;;;;;;;25.28;60.56;100531.72;4483281;32;20774;-89
2021/06/03 07:56:11;;;;;;;5.80;2.00;;;;;;;25.30;60.56;100537.75;4473070;32;26747;-90
2021/06/03 07:58:36;;;;;;;3.40;1.50;;;;;;;25.29;60.55;100536.06;4457120;32;27723;-89
2021/06/03 08:01:02;;;;;;;4.07;1.70;;;;;;;25.39;60.56;100531.72;4468304;32;20416;-89
2021/06/03 08:03:28;;;;;;;6.53;2.15;;;;;;;25.48;60.57;100542.59;4454891;32;20134;-90
2021/06/03 08:05:54;;;;;;;4.47;2.00;;;;;;;25.74;60.58;100530.66;4468206;32;20160;-90
2021/06/03 08:08:19;;;;;;;2.67;1.70;;;;;;;25.95;60.58;100530.69;4455211;32;20124;-90
2021/06/03 08:10:44;;;;;;;2.92;1.80;;;;;;;25.79;60.59;100530.25;4467716;32;20378;-90
2021/06/03 08:13:10;;;;;;;9.40;1.85;;;;;;;25.95;60.59;100534.19;4454489;32;25774;-89
2021/06/03 08:15:37;;;;;;;3.40;1.77;;;;;;;26.05;60.60;100539.63;4454857;32;20112;-90
2021/06/03 08:18:03;;;;;;;5.07;1.95;;;;;;;26.19;60.61;100525.94;4455117;32;20412;-89
2021/06/03 08:20:35;;;;;;;2.45;2.00;;;;;;;26.34;60.61;100529.19;4468043;32;20150;-90
2021/06/03 08:23:01;;;;;;;6.05;1.90;;;;;;;26.16;60.61;100531.53;4455143;32;20407;-90
2021/06/03 08:25:26;;;;;;;3.80;1.40;;;;;;;26.19;60.61;100533.09;4468018;32;20101;-90
2021/06/03 08:27:52;;;;;;;3.33;1.80;;;;;;;26.06;60.60;100532.47;4467393;32;21761;-90
2021/06/03 08:30:17;;;;;;;6.18;2.12;;;;;;;25.92;60.60;100534.47;4454893;32;20116;-90
2021/06/03 08:32:47;;;;;;;4.82;2.20;;;;;;;26.40;60.62;100533.97;4455092;32;20127;-90
2021/06/03 08:35:16;;;;;;;4.87;2.12;;;;;;;26.36;60.61;100535.22;4454432;32;20436;-90
2021/06/03 08:37:45;;;;;;;3.45;2.22;;;;;;;26.31;60.61;100534.75;4442691;32;20481;-91
2021/06/03 08:40:11;;;;;;;3.17;1.90;;;;;;;26.53;60.63;100534.63;4455110;32;20489;-90
2021/06/03 08:42:37;;;;;;;4.57;1.92;;;;;;;26.73;60.64;100532.88;4468129;32;20085;-90
2021/06/03 08:45:04;;;;;;;6.97;2.30;;;;;;;27.04;60.65;100533.75;4454311;32;23553;-90
2021/06/03 08:47:30;;;;;;;6.80;1.80;;;;;;;27.25;60.66;100527.50;4454830;32;20131;-90
2021/06/03 08:49:56;;;;;;;5.35;1.75;;;;;;;27.21;60.66;100519.75;4467809;32;20121;-90
2021/06/03 08:52:21;;;;;;;4.43;2.17;;;;;;;27.46;60.67;100525.56;4454887;32;20111;-90
2021/06/03 08:54:48;;;;;;;4.78;2.55;;;;;;;27.75;60.69;100521.13;4454625;32;20526;-90
2021/06/03 08:57:14;;;;;;;6.80;2.30;;;;;;;27.79;60.69;100517.16;4455006;32;20139;-90
2021/06/03 08:59:39;;;;;;;7.37;1.98;;;;;;;27.81;60.70;100517.03;4454249;32;20896;-90
2021/06/03 09:02:05;;;;;;;5.47;2.05;;;;;;;27.40;60.67;100518.91;4467554;32;20548;-90
2021/06/03 09:04:30;;;;;;;4.37;2.50;;;;;;;27.47;60.67;100519.22;4467665;32;20118;-90
2021/06/03 09:06:56;;;;;;;4.30;2.10;;;;;;;27.30;60.67;100522.56;4467588;32;20158;-90
2021/06/03 09:09:25;;;;;;;4.78;2.35;;;;;;;27.59;60.67;100511.91;4467718;32;20096;-91
2021/06/03 09:12:11;;;;;;;2.70;2.17;;;;;;;27.83;60.70;100515.03;4455050;32;20145;-93
2021/06/03 09:14:36;;;;;;;6.05;2.08;;;;;;;27.96;60.69;100504.06;4441792;32;20145;-90
2021/06/03 09:17:02;;;;;;;5.95;2.03;;;;;;;27.64;60.68;100505.19;4467931;32;20127;-90
2021/06/03 09:19:27;;;;;;;5.80;2.20;;;;;;;27.80;60.68;100505.47;4467660;32;20449;-90
2021/06/03 09:21:52;;;;;;;4.90;2.00;;;;;;;27.55;60.67;100515.84;4454371;32;20136;-90
2021/06/03 09:24:20;;;;;;;3.75;2.40;;;;;;;27.73;60.70;100512.38;4467556;32;20136;-90
2021/06/03 09:26:45;;;;;;;4.22;2.37;;;;;;;27.70;60.69;100515.34;4454821;32;20105;-90
2021/06/03 09:29:12;;;;;;;2.83;1.83;;;;;;;27.84;60.69;100506.03;4468859;32;20110;-90
2021/06/03 09:31:38;;;;;;;2.85;2.03;;;;;;;28.04;60.70;100507.72;4454784;32;20081;-90
2021/06/03 09:34:17;;;;;;;5.62;2.00;;;;;;;28.14;60.71;100508.53;4442491;32;20108;-90
2021/06/03 09:36:49;;;;;;;7.90;2.17;;;;;;;28.19;60.71;100505.44;4469374;32;20096;-90
2021/06/03 09:39:24;;;;;;;5.18;2.50;;;;;;;28.14;60.71;100507.69;4468622;32;20097;-90
2021/06/03 09:41:52;;;;;;;4.72;2.40;;;;;;;28.05;60.72;100509.41;4468196;32;20110;-90
2021/06/03 09:44:48;;;;;;;4.32;2.25;;;;;;;27.97;60.71;100508.44;4454748;32;20108;-91
2021/06/03 09:47:17;;;;;;;3.33;2.33;;;;;;;27.94;60.70;100512.25;4450301;32;20147;-90
2021/06/03 09:49:43;;;;;;;5.28;2.00;;;;;;;27.82;60.70;100508.00;4467263;32;20115;-90
2021/06/03 09:52:11;;;;;;;8.20;2.20;;;;;;;27.71;60.69;100505.50;4467472;32;20084;-90
2021/06/03 09:54:37;;;;;;;6.43;1.90;;;;;;;27.73;60.68;100503.50;4469050;32;20223;-90
2021/06/03 09:57:07;;;;;;;7.47;2.30;;;;;;;28.07;60.71;100502.06;4454645;32;20105;-91
2021/06/03 09:59:38;;;;;;;7.12;1.98;;;;;;;28.01;60.70;100497.28;4468720;32;20100;-91
2021/06/03 10:02:11;;;;;;;3.83;2.03;;;;;;;28.33;60.72;100488.94;4454368;32;20184;-90
2021/06/03 10:04:51;;;;;;;7.00;1.92;;;;;;;28.57;60.73;100491.13;4467288;32;20089;-90
2021/06/03 10:07:17;;;;;;;;;;;;;;;28.86;60.75;100484.81;4454806;32;20112;-91
2021/06/03 10:10:10;;;;;;;5.72;2.17;;;;;;;29.00;60.75;100489.69;4468137;32;20403;-90
2021/06/03 10:12:45;;;;;;;5.90;2.03;;;;;;;28.72;60.74;100494.16;4455017;32;20100;-91
2021/06/03 10:15:19;;;;;;;2.35;2.00;;;;;;;28.77;60.73;100491.03;4468643;32;20145;-91
2021/06/03 10:17:49;;;;;;;5.03;1.85;;;;;;;28.73;60.75;100491.34;4468444;32;20164;-91
2021/06/03 10:20:36;;;;;;;6.87;1.90;;;;;;;28.86;60.75;100484.81;4454282;32;20088;-92
2021/06/03 10:23:02;;;;;;;4.18;2.10;;;;;;;29.10;60.76;100476.22;4454538;32;20088;-91
2021/06/03 10:25:28;;;;;;;4.15;2.17;;;;;;;29.22;60.77;100475.88;4467339;32;20105;-91
2021/06/03 10:28:14;;;;;;;4.10;2.12;;;;;;;29.47;60.79;100468.94;4465872;32;20095;-91
2021/06/03 10:30:45;;;;;;;4.70;2.50;;;;;;;29.53;60.78;100468.31;4459219;32;20108;-91
2021/06/03 10:33:12;;;;;;;5.72;1.80;;;;;;;29.44;60.78;100463.84;4449234;32;20076;-91
2021/06/03 10:35:39;;;;;;;4.72;1.83;;;;;;;29.57;60.79;100467.00;4470636;32;20504;-92
2021/06/03 10:38:06;;;;;;;4.50;2.10;;;;;;;29.51;60.78;100458.75;4454178;32;20401;-93
2021/06/03 10:40:34;;;;;;;4.93;2.20;;;;;;;29.20;60.76;100466.28;4453858;32;20112;-92
2021/06/03 10:42:59;;;;;;;3.53;2.00;;;;;;;29.06;60.76;100464.94;4453909;32;20119;-92
2021/06/03 10:45:26;;;;;;;5.05;2.03;;;;;;;29.22;60.76;100459.78;4440880;32;20109;-92
2021/06/03 10:47:51;;;;;;;7.62;2.47;;;;;;;29.43;60.78;100454.13;4441010;32;20113;-92
2021/06/03 10:50:19;;;;;;;5.85;2.20;;;;;;;29.23;60.76;100456.09;4453865;32;20123;-93
2021/06/03 10:52:45;;;;;;;6.78;2.00;;;;;;;29.29;60.77;100450.13;4441471;32;20453;-92
2021/06/03 10:55:10;;;;;;;3.33;2.28;;;;;;;29.45;60.78;100452.16;4454079;32;20136;-94
2021/06/03 10:57:52;;;;;;;3.55;2.10;;;;;;;29.22;60.76;100453.56;4455428;32;20113;-94
2021/06/03 11:00:29;;;;;;;3.72;2.22;;;;;;;29.21;60.77;100447.37;4443625;32;20096;-93
2021/06/03 11:02:57;;;;;;;6.30;2.53;;;;;;;29.25;60.77;100454.09;4469409;32;20099;-94
2021/06/03 11:05:30;;;;;;;3.08;2.35;;;;;;;29.21;60.77;100459.94;4443185;32;20096;-94
2021/06/03 11:07:55;;;;;;;7.30;2.40;;;;;;;29.04;60.76;100457.06;4443328;32;20174;-93
2021/06/03 11:10:22;;;;;;;4.47;2.15;;;;;;;28.83;60.74;100460.97;4469273;32;20080;-94
2021/06/03 11:13:14;;;;;;;2.92;2.00;;;;;;;28.51;60.73;100464.06;4443283;32;20148;-94
2021/06/03 11:16:02;;;;;;;3.53;2.10;;;;;;;28.40;60.73;100460.59;4456188;32;20135;-93
2021/06/03 11:18:49;;;;;;;3.97;2.33;;;;;;;28.59;60.73;100458.81;4456236;32;20135;-94
2021/06/03 11:21:33;;;;;;;3.72;2.30;;;;;;;28.60;60.73;100458.66;4470444;32;20139;-94
2021/06/03 11:23:59;;;;;;;6.18;2.20;;;;;;;28.77;60.75;100450.84;4469381;32;20145;-94
2021/06/03 11:26:36;;;;;;;5.20;2.10;;;;;;;29.11;60.76;100448.44;4469172;32;20100;-94